createdAt,value
2023-05-13T00:01:41.149Z,98401.94
2023-05-13T00:04:29.244Z,98401.38
2023-05-13T00:07:17.061Z,98404.16
2023-05-13T00:10:05.313Z,98402.78
2023-05-13T00:12:53.470Z,98400.41
2023-05-13T00:15:43.012Z,98397.38
2023-05-13T00:18:30.849Z,98395.69
2023-05-13T00:21:18.872Z,98393.31
2023-05-13T00:24:07.874Z,98386.63
2023-05-13T00:26:55.831Z,98381.63
2023-05-13T00:29:43.538Z,98387.19
2023-05-13T00:32:33.242Z,98382.19
2023-05-13T00:35:21.388Z,98385.25
2023-05-13T00:38:09.480Z,98392.50
2023-05-13T00:40:57.211Z,98391.94
2023-05-13T00:43:44.972Z,98391.25
2023-05-13T00:46:33.967Z,98398.50
2023-05-13T00:49:23.454Z,98394.47
2023-05-13T00:52:11.562Z,98398.34
2023-05-13T00:55:00.088Z,98398.63
2023-05-13T00:57:47.952Z,98389.97
2023-05-13T01:00:42.516Z,98382.44
2023-05-13T01:03:39.965Z,98387.16
2023-05-13T01:06:37.776Z,98383.13
2023-05-13T01:09:37.916Z,98387.03
2023-05-13T01:12:33.513Z,98392.59
2023-05-13T01:15:26.263Z,98397.19
2023-05-13T01:18:20.308Z,98392.44
2023-05-13T01:21:09.678Z,98400.53
2023-05-13T01:23:59.602Z,98402.22
2023-05-13T01:26:47.633Z,98406.94
2023-05-13T01:29:36.283Z,98412.50
2023-05-13T01:32:25.556Z,98417.06
2023-05-13T01:35:14.633Z,98412.19
2023-05-13T01:38:03.500Z,98413.31
2023-05-13T01:40:53.032Z,98416.94
2023-05-13T01:43:40.629Z,98411.78
2023-05-13T01:46:28.870Z,98409.28
2023-05-13T01:49:16.515Z,98410.25
2023-05-13T01:52:05.222Z,98412.19
2023-05-13T01:54:53.035Z,98409.66
2023-05-13T01:57:42.326Z,98408.81
2023-05-13T02:00:30.136Z,98402.84
2023-05-13T02:03:18.306Z,98412.44
2023-05-13T02:06:06.572Z,98416.34
2023-05-13T02:08:54.504Z,98407.44
2023-05-13T02:11:42.513Z,98413.84
2023-05-13T02:14:31.855Z,98410.06
2023-05-13T02:17:19.629Z,98412.72
2023-05-13T02:20:09.126Z,98410.06
2023-05-13T02:22:56.962Z,98415.50
2023-05-13T02:25:45.186Z,98416.34
2023-05-13T02:28:33.150Z,98410.34
2023-05-13T02:31:22.322Z,98413.00
2023-05-13T02:34:10.026Z,98413.00
2023-05-13T02:36:58.146Z,98416.75
2023-05-13T02:39:46.296Z,98416.63
2023-05-13T02:42:34.391Z,98417.88
2023-05-13T02:45:22.409Z,98415.34
2023-05-13T02:48:11.996Z,98419.78
2023-05-13T02:51:00.025Z,98412.84
2023-05-13T02:53:48.181Z,98419.06
2023-05-13T02:56:36.518Z,98410.47
2023-05-13T02:59:24.354Z,98419.34
2023-05-13T03:02:12.413Z,98416.00
2023-05-13T03:05:01.600Z,98422.25
2023-05-13T03:07:49.659Z,98423.25
2023-05-13T03:10:37.535Z,98430.19
2023-05-13T03:13:25.574Z,98418.94
2023-05-13T03:16:13.623Z,98425.19
2023-05-13T03:19:01.735Z,98433.81
2023-05-13T03:21:51.210Z,98426.84
2023-05-13T03:24:38.815Z,98428.78
2023-05-13T03:27:26.864Z,98424.34
2023-05-13T03:30:15.318Z,98430.47
2023-05-13T03:33:03.327Z,98432.16
2023-05-13T03:35:51.413Z,98429.50
2023-05-13T03:38:40.847Z,98432.28
2023-05-13T03:41:29.139Z,98439.38
2023-05-13T03:44:17.037Z,98435.78
2023-05-13T03:47:05.326Z,98438.41
2023-05-13T03:49:53.134Z,98446.34
2023-05-13T03:52:40.975Z,98436.72
2023-05-13T03:55:30.523Z,98443.72
2023-05-13T03:58:19.080Z,98442.00
2023-05-13T04:01:07.883Z,98448.28
2023-05-13T04:03:55.642Z,98445.50
2023-05-13T04:06:43.626Z,98448.16
2023-05-13T04:09:31.637Z,98450.66
2023-05-13T04:12:20.911Z,98455.09
2023-05-13T04:15:09.514Z,98449.13
2023-05-13T04:17:57.414Z,98451.66
2023-05-13T04:20:45.555Z,98460.25
2023-05-13T04:23:33.518Z,98461.75
2023-05-13T04:26:21.665Z,98467.78
2023-05-13T04:29:11.147Z,98467.78
2023-05-13T04:31:59.267Z,98470.41
2023-05-13T04:34:47.065Z,98458.84
2023-05-13T04:37:34.962Z,98476.13
2023-05-13T04:40:23.173Z,98472.25
2023-05-13T04:43:11.298Z,98467.41
2023-05-13T04:46:00.364Z,98473.81
2023-05-13T04:48:48.393Z,98474.53
2023-05-13T04:51:36.829Z,98474.81
2023-05-13T04:54:25.153Z,98464.56
2023-05-13T04:57:13.184Z,98471.53
2023-05-13T05:00:01.180Z,98465.69
2023-05-13T05:02:50.496Z,98471.84
2023-05-13T05:05:38.506Z,98461.53
2023-05-13T05:08:28.697Z,98469.19
2023-05-13T05:11:16.516Z,98470.31
2023-05-13T05:14:04.378Z,98472.44
2023-05-13T05:16:52.385Z,98471.63
2023-05-13T05:19:42.166Z,98478.91
2023-05-13T05:22:29.992Z,98477.25
2023-05-13T05:25:18.115Z,98483.66
2023-05-13T05:28:06.051Z,98492.75
2023-05-13T05:30:53.789Z,98481.31
2023-05-13T05:33:42.452Z,98489.38
2023-05-13T05:36:32.382Z,98489.81
2023-05-13T05:39:20.104Z,98493.16
2023-05-13T05:42:08.409Z,98497.91
2023-05-13T05:44:56.412Z,98504.28
2023-05-13T05:47:44.465Z,98504.41
2023-05-13T05:50:33.381Z,98500.31
2023-05-13T05:53:22.409Z,98499.06
2023-05-13T05:56:10.319Z,98499.25
2023-05-13T05:58:58.304Z,98504.03
2023-05-13T06:01:46.304Z,98502.38
2023-05-13T06:04:34.343Z,98508.13
2023-05-13T06:07:22.006Z,98507.66
2023-05-13T06:10:12.244Z,98506.28
2023-05-13T06:13:00.140Z,98507.38
2023-05-13T06:15:48.154Z,98507.22
2023-05-13T06:18:36.184Z,98509.84
2023-05-13T06:21:23.982Z,98503.56
2023-05-13T06:24:12.033Z,98494.34
2023-05-13T06:27:01.663Z,98487.31
2023-05-13T06:29:49.662Z,98494.09
2023-05-13T06:32:39.391Z,98481.53
2023-05-13T06:35:31.014Z,98492.56
2023-05-13T06:38:19.174Z,98484.94
2023-05-13T06:41:07.264Z,98475.50
2023-05-13T06:43:56.550Z,98472.34
2023-05-13T06:46:44.260Z,98484.22
2023-05-13T06:49:33.448Z,98486.41
2023-05-13T06:52:21.158Z,98477.06
2023-05-13T06:55:10.584Z,98469.41
2023-05-13T06:57:58.250Z,98475.25
2023-05-13T07:00:47.723Z,98479.09
2023-05-13T07:03:35.454Z,98477.53
2023-05-13T07:06:23.350Z,98473.34
2023-05-13T07:09:11.385Z,98476.13
2023-05-13T07:11:59.469Z,98481.59
2023-05-13T07:14:47.354Z,98473.72
2023-05-13T07:17:36.948Z,98469.84
2023-05-13T07:20:26.519Z,98472.66
2023-05-13T07:23:14.422Z,98473.50
2023-05-13T07:26:02.329Z,98469.75
2023-05-13T07:28:50.034Z,98476.69
2023-05-13T07:31:38.079Z,98474.63
2023-05-13T07:34:27.250Z,98474.28
2023-05-13T07:37:15.020Z,98467.75
2023-05-13T07:40:03.192Z,98468.84
2023-05-13T07:42:51.500Z,98470.50
2023-05-13T07:45:40.112Z,98472.06
2023-05-13T07:48:28.195Z,98472.56
2023-05-13T07:51:18.475Z,98469.84
2023-05-13T07:54:06.729Z,98468.94
2023-05-13T07:56:54.520Z,98468.53
2023-05-13T07:59:44.643Z,98477.72
2023-05-13T08:02:34.823Z,98475.22
2023-05-13T08:05:22.919Z,98470.88
2023-05-13T08:08:12.495Z,98479.47
2023-05-13T08:11:00.266Z,98467.81
2023-05-13T08:13:47.858Z,98468.31
2023-05-13T08:16:37.090Z,98460.25
2023-05-13T08:19:24.651Z,98459.41
2023-05-13T08:22:12.251Z,98462.03
2023-05-13T08:25:01.947Z,98454.97
2023-05-13T08:27:49.688Z,98457.28
2023-05-13T08:30:37.185Z,98460.91
2023-05-13T08:33:24.723Z,98463.22
2023-05-13T08:36:12.139Z,98460.25
2023-05-13T08:38:59.545Z,98459.16
2023-05-13T08:41:50.677Z,98459.69
2023-05-13T08:44:44.816Z,98461.63
2023-05-13T08:47:44.170Z,98465.66
2023-05-13T08:50:32.544Z,98464.66
2023-05-13T08:53:20.928Z,98468.16
2023-05-13T08:56:13.127Z,98466.47
2023-05-13T08:59:02.078Z,98466.84
2023-05-13T09:01:51.077Z,98460.13
2023-05-13T09:04:42.461Z,98470.94
2023-05-13T09:07:32.481Z,98455.59
2023-05-13T09:10:22.745Z,98461.72
2023-05-13T09:13:13.121Z,98460.34
2023-05-13T09:16:03.675Z,98461.16
2023-05-13T09:18:51.520Z,98459.78
2023-05-13T09:21:39.602Z,98472.81
2023-05-13T09:24:28.538Z,98469.03
2023-05-13T09:27:16.307Z,98468.22
2023-05-13T09:30:03.769Z,98464.88
2023-05-13T09:33:12.376Z,98470.69
2023-05-13T09:36:00.131Z,98475.63
2023-05-13T09:38:47.759Z,98471.06
2023-05-13T09:41:36.676Z,98482.00
2023-05-13T09:44:24.517Z,98475.50
2023-05-13T09:47:13.694Z,98483.84
2023-05-13T09:50:04.986Z,98484.75
2023-05-13T09:52:52.912Z,98486.88
2023-05-13T09:55:48.057Z,98486.03
2023-05-13T09:58:56.099Z,98491.22
2023-05-13T10:01:46.467Z,98485.59
2023-05-13T10:04:35.276Z,98492.59
2023-05-13T10:07:25.786Z,98492.47
2023-05-13T10:10:14.146Z,98493.50
2023-05-13T10:13:09.223Z,98494.41
2023-05-13T10:15:57.191Z,98492.75
2023-05-13T10:18:44.993Z,98493.03
2023-05-13T10:21:36.212Z,98489.06
2023-05-13T10:24:34.992Z,98494.41
2023-05-13T10:27:30.046Z,98487.75
2023-05-13T10:30:19.863Z,98491.47
2023-05-13T10:33:08.377Z,98499.50
2023-05-13T10:36:19.119Z,98498.84
2023-05-13T10:40:12.182Z,98489.16
2023-05-13T10:43:18.085Z,98488.91
2023-05-13T10:46:09.205Z,98490.00
2023-05-13T10:49:01.804Z,98494.88
2023-05-13T10:51:50.753Z,98490.75
2023-05-13T10:54:42.532Z,98496.25
2023-05-13T10:57:37.015Z,98493.69
2023-05-13T11:00:32.627Z,98492.31
2023-05-13T11:03:30.899Z,98503.69
2023-05-13T11:06:22.396Z,98502.28
2023-05-13T11:09:14.841Z,98500.28
2023-05-13T11:12:06.208Z,98501.38
2023-05-13T11:14:57.346Z,98496.03
2023-05-13T11:17:47.533Z,98491.50
2023-05-13T11:20:51.613Z,98498.34
2023-05-13T11:23:54.762Z,98496.13
2023-05-13T11:26:50.895Z,98499.00
2023-05-13T11:29:40.118Z,98494.09
2023-05-13T11:32:56.415Z,98496.31
2023-05-13T11:35:55.245Z,98480.31
2023-05-13T11:38:42.604Z,98485.06
2023-05-13T11:41:33.529Z,98487.25
2023-05-13T11:44:24.075Z,98481.91
2023-05-13T11:47:12.963Z,98480.44
2023-05-13T11:50:00.883Z,98477.97
2023-05-13T11:52:54.613Z,98477.22
2023-05-13T11:55:42.502Z,98470.91
2023-05-13T11:58:29.944Z,98472.72
2023-05-13T12:01:17.441Z,98475.66
2023-05-13T12:04:07.252Z,98476.03
2023-05-13T12:06:54.680Z,98472.44
2023-05-13T12:09:42.191Z,98476.59
2023-05-13T12:12:31.794Z,98479.47
2023-05-13T12:15:22.041Z,98477.81
2023-05-13T12:18:09.942Z,98481.78
2023-05-13T12:20:59.576Z,98485.16
2023-05-13T12:23:47.049Z,98488.84
2023-05-13T12:26:34.623Z,98490.69
2023-05-13T12:29:22.172Z,98499.03
2023-05-13T12:32:11.951Z,98502.13
2023-05-13T12:34:59.539Z,98501.00
2023-05-13T12:38:02.167Z,98499.03
2023-05-13T12:40:51.434Z,98503.63
2023-05-13T12:43:39.274Z,98502.50
2023-05-13T12:46:26.963Z,98496.00
2023-05-13T12:49:16.650Z,98492.78
2023-05-13T12:52:06.928Z,98489.81
2023-05-13T12:54:55.749Z,98490.94
2023-05-13T12:57:43.992Z,98486.84
2023-05-13T13:00:32.786Z,98484.66
2023-05-13T13:03:23.222Z,98495.22
2023-05-13T13:06:13.201Z,98488.13
2023-05-13T13:09:01.059Z,98486.38
2023-05-13T13:11:49.868Z,98493.84
2023-05-13T13:14:41.408Z,98494.41
2023-05-13T13:17:35.579Z,98494.78
2023-05-13T13:20:24.292Z,98496.44
2023-05-13T13:23:11.943Z,98498.81
2023-05-13T13:26:00.251Z,98483.97
2023-05-13T13:28:49.188Z,98485.31
2023-05-13T13:31:37.134Z,98476.31
2023-05-13T13:34:25.052Z,98474.03
2023-05-13T13:37:12.807Z,98474.22
2023-05-13T13:40:00.238Z,98464.34
2023-05-13T13:42:47.808Z,98464.34
2023-05-13T13:45:38.795Z,98462.00
2023-05-13T13:48:29.625Z,98456.72
2023-05-13T13:51:18.530Z,98448.97
2023-05-13T13:54:06.781Z,98448.44
2023-05-13T13:56:55.145Z,98450.84
2023-05-13T13:59:42.899Z,98446.38
2023-05-13T14:02:32.194Z,98439.13
2023-05-13T14:05:23.399Z,98431.06
2023-05-13T14:08:10.859Z,98427.78
2023-05-13T14:10:58.789Z,98424.06
2023-05-13T14:13:46.530Z,98424.88
2023-05-13T14:16:34.266Z,98420.75
2023-05-13T14:19:24.046Z,98423.63
2023-05-13T14:22:11.427Z,98428.19
2023-05-13T14:25:00.217Z,98427.38
2023-05-13T14:27:48.098Z,98430.88
2023-05-13T14:30:35.461Z,98427.56
2023-05-13T14:33:22.806Z,98433.97
2023-05-13T14:36:16.053Z,98434.56
2023-05-13T14:39:03.636Z,98431.03
2023-05-13T14:41:51.032Z,98435.16
2023-05-13T14:44:41.374Z,98438.03
2023-05-13T14:47:28.889Z,98436.78
2023-05-13T14:50:16.298Z,98430.16
2023-05-13T14:53:05.155Z,98439.16
2023-05-13T14:55:53.111Z,98432.59
2023-05-13T14:58:40.643Z,98420.72
2023-05-13T15:01:30.750Z,98418.94
2023-05-13T15:04:18.684Z,98420.72
2023-05-13T15:07:07.851Z,98412.25
2023-05-13T15:09:57.388Z,98411.47
2023-05-13T15:12:45.000Z,98409.81
2023-05-13T15:15:33.570Z,98406.06
2023-05-13T15:18:21.279Z,98399.47
2023-05-13T15:21:08.971Z,98412.31
2023-05-13T15:23:56.460Z,98404.06
2023-05-13T15:26:45.394Z,98401.00
2023-05-13T15:29:33.576Z,98401.19
2023-05-13T15:32:21.391Z,98394.13
2023-05-13T15:35:10.216Z,98396.00
2023-05-13T15:37:57.791Z,98397.03
2023-05-13T15:40:47.273Z,98391.69
2023-05-13T15:43:36.605Z,98378.00
2023-05-13T15:46:24.961Z,98379.25
2023-05-13T15:49:13.586Z,98376.97
2023-05-13T15:52:01.534Z,98373.25
2023-05-13T15:54:49.456Z,98366.41
2023-05-13T15:57:37.029Z,98373.44
2023-05-13T16:00:25.988Z,98377.59
2023-05-13T16:03:13.539Z,98374.28
2023-05-13T16:06:01.152Z,98374.69
2023-05-13T16:08:49.346Z,98372.63
2023-05-13T16:11:37.260Z,98377.56
2023-05-13T16:14:24.995Z,98368.25
2023-05-13T16:17:14.938Z,98372.00
2023-05-13T16:20:03.162Z,98370.94
2023-05-13T16:22:51.663Z,98365.75
2023-05-13T16:25:39.648Z,98363.47
2023-05-13T16:28:27.567Z,98367.22
2023-05-13T16:31:15.441Z,98357.47
2023-05-13T16:34:04.461Z,98350.56
2023-05-13T16:36:51.836Z,98353.31
2023-05-13T16:39:39.949Z,98344.03
2023-05-13T16:42:27.722Z,98342.63
2023-05-13T16:45:15.327Z,98334.63
2023-05-13T16:48:02.897Z,98345.50
2023-05-13T16:50:52.200Z,98337.44
2023-05-13T16:53:39.725Z,98341.97
2023-05-13T16:56:27.310Z,98348.63
2023-05-13T16:59:21.650Z,98345.47
2023-05-13T17:02:10.180Z,98341.78
2023-05-13T17:04:57.861Z,98339.41
2023-05-13T17:07:46.626Z,98336.75
2023-05-13T17:10:34.678Z,98353.72
2023-05-13T17:13:22.779Z,98352.72
2023-05-13T17:16:11.050Z,98363.50
2023-05-13T17:18:59.473Z,98360.75
2023-05-13T17:21:47.369Z,98357.13
2023-05-13T17:24:41.689Z,98356.25
2023-05-13T17:27:29.182Z,98358.97
2023-05-13T17:30:17.794Z,98361.28
2023-05-13T17:33:05.767Z,98356.06
2023-05-13T17:35:53.515Z,98362.91
2023-05-13T17:38:41.245Z,98360.34
2023-05-13T17:41:30.354Z,98370.91
2023-05-13T17:44:19.924Z,98373.41
2023-05-13T17:47:07.904Z,98378.78
2023-05-13T17:49:55.601Z,98376.97
2023-05-13T17:52:43.246Z,98374.63
2023-05-13T17:55:31.357Z,98375.91
2023-05-13T17:58:20.396Z,98379.19
2023-05-13T18:01:08.634Z,98380.16
2023-05-13T18:03:57.590Z,98383.72
2023-05-13T18:06:44.951Z,98379.06
2023-05-13T18:09:32.859Z,98378.88
2023-05-13T18:12:21.163Z,98389.25
2023-05-13T18:15:10.988Z,98394.16
2023-05-13T18:17:58.725Z,98393.47
2023-05-13T18:20:46.835Z,98387.19
2023-05-13T18:23:34.103Z,98391.69
2023-05-13T18:27:06.223Z,98401.66
2023-05-13T18:29:53.581Z,98395.84
2023-05-13T18:32:41.133Z,98395.22
2023-05-13T18:35:28.785Z,98404.03
2023-05-13T18:38:16.256Z,98416.97
2023-05-13T18:41:04.847Z,98421.09
2023-05-13T18:43:53.828Z,98419.31
2023-05-13T18:46:41.752Z,98422.72
2023-05-13T18:49:29.535Z,98428.00
2023-05-13T18:52:17.077Z,98428.41
2023-05-13T18:55:06.176Z,98434.06
2023-05-13T18:57:54.062Z,98436.13
2023-05-13T19:00:42.897Z,98434.78
2023-05-13T19:03:30.736Z,98442.66
2023-05-13T19:06:18.305Z,98445.38
2023-05-13T19:09:06.198Z,98462.13
2023-05-13T19:11:53.700Z,98460.19
2023-05-13T19:14:41.475Z,98454.41
2023-05-13T19:17:31.265Z,98458.75
2023-05-13T19:20:19.242Z,98466.28
2023-05-13T19:23:06.818Z,98472.34
2023-05-13T19:25:54.419Z,98467.19
2023-05-13T19:28:43.808Z,98475.41
2023-05-13T19:31:32.348Z,98474.75
2023-05-13T19:34:25.306Z,98484.44
2023-05-13T19:37:13.042Z,98483.59
2023-05-13T19:40:00.575Z,98481.94
2023-05-13T19:42:49.246Z,98481.22
2023-05-13T19:45:37.906Z,98483.22
2023-05-13T19:48:26.751Z,98484.72
2023-05-13T19:51:16.555Z,98481.03
2023-05-13T19:54:06.636Z,98482.72
2023-05-13T19:56:54.780Z,98486.03
2023-05-13T19:59:42.754Z,98490.16
2023-05-13T20:02:30.854Z,98490.00
2023-05-13T20:05:18.842Z,98490.31
2023-05-13T20:08:08.010Z,98482.81
2023-05-13T20:10:55.226Z,98483.97
2023-05-13T20:13:42.755Z,98482.31
2023-05-13T20:16:30.720Z,98475.28
2023-05-13T20:19:18.265Z,98477.59
2023-05-13T20:22:05.913Z,98477.91
2023-05-13T20:24:54.740Z,98480.72
2023-05-13T20:27:42.430Z,98477.25
2023-05-13T20:30:30.036Z,98477.75
2023-05-13T20:33:17.971Z,98478.88
2023-05-13T20:36:06.764Z,98476.88
2023-05-13T20:38:54.162Z,98474.69
2023-05-13T20:41:42.917Z,98481.69
2023-05-13T20:44:30.493Z,98482.16
2023-05-13T20:47:18.386Z,98479.66
2023-05-13T20:50:07.231Z,98471.81
2023-05-13T20:52:55.772Z,98479.13
2023-05-13T20:55:43.026Z,98483.09
2023-05-13T20:58:32.122Z,98476.44
2023-05-13T21:01:20.026Z,98466.25
2023-05-13T21:04:09.893Z,98474.56
2023-05-13T21:06:58.566Z,98475.72
2023-05-13T21:09:46.308Z,98471.72
2023-05-13T21:12:34.131Z,98469.38
2023-05-13T21:15:23.017Z,98470.63
2023-05-13T21:18:10.916Z,98475.94
2023-05-13T21:20:58.468Z,98468.56
2023-05-13T21:23:48.527Z,98462.88
2023-05-13T21:26:36.424Z,98462.66
2023-05-13T21:29:25.905Z,98469.47
2023-05-13T21:32:15.088Z,98463.91
2023-05-13T21:35:02.414Z,98462.03
2023-05-13T21:37:50.855Z,98471.94
2023-05-13T21:40:40.062Z,98463.25
2023-05-13T21:43:27.589Z,98457.94
2023-05-13T21:46:15.280Z,98466.38
2023-05-13T21:49:04.427Z,98461.56
2023-05-13T21:51:52.546Z,98461.63
2023-05-13T21:54:40.480Z,98461.72
2023-05-13T21:57:29.598Z,98457.31
2023-05-13T22:00:18.868Z,98462.56
2023-05-13T22:03:06.783Z,98463.31
2023-05-13T22:05:56.156Z,98460.72
2023-05-13T22:08:43.982Z,98452.66
2023-05-13T22:11:31.564Z,98452.00
2023-05-13T22:14:18.998Z,98450.38
2023-05-13T22:17:09.326Z,98454.34
2023-05-13T22:19:57.436Z,98449.31
2023-05-13T22:22:46.319Z,98451.84
2023-05-13T22:25:33.997Z,98451.47
2023-05-13T22:28:21.564Z,98445.91
2023-05-13T22:31:09.447Z,98455.44
2023-05-13T22:33:57.123Z,98443.47
2023-05-13T22:36:45.056Z,98449.34
2023-05-13T22:39:36.979Z,98444.34
2023-05-13T22:42:24.692Z,98439.69
2023-05-13T22:45:13.181Z,98440.47
2023-05-13T22:48:00.771Z,98453.88
2023-05-13T22:50:48.959Z,98453.88
2023-05-13T22:53:36.436Z,98455.72
2023-05-13T22:56:25.259Z,98445.28
2023-05-13T22:59:12.945Z,98443.38
2023-05-13T23:02:00.713Z,98445.78
2023-05-13T23:04:48.245Z,98439.22
2023-05-13T23:07:35.994Z,98437.84
2023-05-13T23:10:23.896Z,98438.25
2023-05-13T23:13:12.924Z,98437.88
2023-05-13T23:16:00.421Z,98441.78
2023-05-13T23:18:48.061Z,98437.47
2023-05-13T23:21:36.727Z,98435.09
2023-05-13T23:24:24.110Z,98430.34
2023-05-13T23:27:12.383Z,98423.69
2023-05-13T23:30:01.325Z,98420.03
2023-05-13T23:32:49.092Z,98416.56
2023-05-13T23:35:37.062Z,98414.19
2023-05-13T23:38:25.226Z,98413.09
2023-05-13T23:41:12.998Z,98410.31
2023-05-13T23:44:00.929Z,98416.19
2023-05-13T23:46:49.695Z,98418.28
2023-05-13T23:49:37.799Z,98410.91
2023-05-13T23:52:25.205Z,98407.81
2023-05-13T23:55:12.964Z,98406.44
2023-05-13T23:58:00.571Z,98401.72
